sensor_id;sensor_type;location;lat;lon;timestamp;P1;durP1;ratioP1;P2;durP2;ratioP2
21501;SDS011;27639;48.674;9.242;2024-03-08T00:00:10;25.42;;;15.80;;
21501;SDS011;27639;48.674;9.242;2024-03-08T00:02:40;23.27;;;15.75;;
21501;SDS011;27639;48.674;9.242;2024-03-08T00:05:07;23.88;;;16.45;;
21501;SDS011;27639;48.674;9.242;2024-03-08T00:07:43;23.20;;;15.95;;
21501;SDS011;27639;48.674;9.242;2024-03-08T00:10:09;27.42;;;16.63;;
21501;SDS011;27639;48.674;9.242;2024-03-08T00:12:36;24.60;;;16.17;;
21501;SDS011;27639;48.674;9.242;2024-03-08T00:15:02;23.13;;;16.05;;
21501;SDS011;27639;48.674;9.242;2024-03-08T00:17:28;23.20;;;16.33;;
21501;SDS011;27639;48.674;9.242;2024-03-08T00:19:54;25.67;;;16.20;;
21501;SDS011;27639;48.674;9.242;2024-03-08T00:22:19;23.83;;;16.08;;
21501;SDS011;27639;48.674;9.242;2024-03-08T00:24:47;23.45;;;16.08;;
21501;SDS011;27639;48.674;9.242;2024-03-08T00:27:14;24.60;;;15.82;;
21501;SDS011;27639;48.674;9.242;2024-03-08T00:29:40;25.52;;;16.67;;
21501;SDS011;27639;48.674;9.242;2024-03-08T00:32:06;24.98;;;15.48;;
21501;SDS011;27639;48.674;9.242;2024-03-08T00:34:34;20.92;;;14.95;;
21501;SDS011;27639;48.674;9.242;2024-03-08T00:37:02;23.35;;;15.38;;
21501;SDS011;27639;48.674;9.242;2024-03-08T00:39:28;24.30;;;15.00;;
21501;SDS011;27639;48.674;9.242;2024-03-08T00:41:54;23.70;;;15.30;;
21501;SDS011;27639;48.674;9.242;2024-03-08T00:44:19;23.20;;;15.38;;
21501;SDS011;27639;48.674;9.242;2024-03-08T00:46:45;24.23;;;16.23;;
21501;SDS011;27639;48.674;9.242;2024-03-08T00:49:10;24.75;;;15.23;;
21501;SDS011;27639;48.674;9.242;2024-03-08T00:51:37;21.90;;;14.65;;
21501;SDS011;27639;48.674;9.242;2024-03-08T00:54:03;24.75;;;15.75;;
21501;SDS011;27639;48.674;9.242;2024-03-08T00:56:28;23.13;;;14.95;;
21501;SDS011;27639;48.674;9.242;2024-03-08T00:58:54;26.98;;;16.15;;
21501;SDS011;27639;48.674;9.242;2024-03-08T01:01:19;26.67;;;16.40;;
21501;SDS011;27639;48.674;9.242;2024-03-08T01:03:45;25.63;;;15.95;;
21501;SDS011;27639;48.674;9.242;2024-03-08T01:06:11;23.63;;;14.48;;
21501;SDS011;27639;48.674;9.242;2024-03-08T01:08:36;24.42;;;15.85;;
21501;SDS011;27639;48.674;9.242;2024-03-08T01:11:07;25.08;;;15.43;;
21501;SDS011;27639;48.674;9.242;2024-03-08T01:13:34;26.48;;;16.55;;
21501;SDS011;27639;48.674;9.242;2024-03-08T01:15:59;23.83;;;16.95;;
21501;SDS011;27639;48.674;9.242;2024-03-08T01:18:25;27.02;;;16.90;;
21501;SDS011;27639;48.674;9.242;2024-03-08T01:20:50;26.70;;;16.88;;
21501;SDS011;27639;48.674;9.242;2024-03-08T01:23:16;24.80;;;16.52;;
21501;SDS011;27639;48.674;9.242;2024-03-08T01:25:42;24.92;;;16.55;;
21501;SDS011;27639;48.674;9.242;2024-03-08T01:28:09;25.60;;;16.98;;
21501;SDS011;27639;48.674;9.242;2024-03-08T01:30:34;23.90;;;15.80;;
21501;SDS011;27639;48.674;9.242;2024-03-08T01:33:01;25.25;;;15.63;;
21501;SDS011;27639;48.674;9.242;2024-03-08T01:35:27;23.55;;;15.43;;
21501;SDS011;27639;48.674;9.242;2024-03-08T01:37:53;26.50;;;16.40;;
21501;SDS011;27639;48.674;9.242;2024-03-08T01:40:18;26.45;;;16.60;;
21501;SDS011;27639;48.674;9.242;2024-03-08T01:42:44;25.20;;;15.15;;
21501;SDS011;27639;48.674;9.242;2024-03-08T01:45:10;23.45;;;15.23;;
21501;SDS011;27639;48.674;9.242;2024-03-08T01:47:35;24.38;;;15.07;;
21501;SDS011;27639;48.674;9.242;2024-03-08T01:50:02;23.10;;;14.73;;
21501;SDS011;27639;48.674;9.242;2024-03-08T01:52:31;21.92;;;14.57;;
21501;SDS011;27639;48.674;9.242;2024-03-08T01:54:59;25.23;;;14.90;;
21501;SDS011;27639;48.674;9.242;2024-03-08T01:57:26;22.35;;;14.85;;
21501;SDS011;27639;48.674;9.242;2024-03-08T01:59:56;24.85;;;14.27;;
21501;SDS011;27639;48.674;9.242;2024-03-08T02:02:22;24.60;;;14.57;;
21501;SDS011;27639;48.674;9.242;2024-03-08T02:04:48;21.83;;;14.02;;
21501;SDS011;27639;48.674;9.242;2024-03-08T02:07:17;23.10;;;15.00;;
21501;SDS011;27639;48.674;9.242;2024-03-08T02:09:43;25.05;;;14.77;;
21501;SDS011;27639;48.674;9.242;2024-03-08T02:12:08;23.65;;;15.18;;
21501;SDS011;27639;48.674;9.242;2024-03-08T02:14:35;22.70;;;14.35;;
21501;SDS011;27639;48.674;9.242;2024-03-08T02:17:01;22.55;;;14.27;;
21501;SDS011;27639;48.674;9.242;2024-03-08T02:19:27;23.33;;;14.23;;
21501;SDS011;27639;48.674;9.242;2024-03-08T02:21:53;21.65;;;14.85;;
21501;SDS011;27639;48.674;9.242;2024-03-08T02:24:18;22.80;;;14.23;;
21501;SDS011;27639;48.674;9.242;2024-03-08T02:26:44;23.45;;;14.57;;
21501;SDS011;27639;48.674;9.242;2024-03-08T02:29:09;22.55;;;14.70;;
21501;SDS011;27639;48.674;9.242;2024-03-08T02:31:35;23.70;;;14.80;;
21501;SDS011;27639;48.674;9.242;2024-03-08T02:34:01;23.40;;;14.60;;
21501;SDS011;27639;48.674;9.242;2024-03-08T02:36:27;22.35;;;14.60;;
21501;SDS011;27639;48.674;9.242;2024-03-08T02:38:52;20.83;;;13.77;;
21501;SDS011;27639;48.674;9.242;2024-03-08T02:41:20;22.60;;;14.30;;
21501;SDS011;27639;48.674;9.242;2024-03-08T02:43:46;24.10;;;15.18;;
21501;SDS011;27639;48.674;9.242;2024-03-08T02:46:11;20.38;;;14.25;;
21501;SDS011;27639;48.674;9.242;2024-03-08T02:48:37;22.20;;;13.60;;
21501;SDS011;27639;48.674;9.242;2024-03-08T02:51:02;21.95;;;13.63;;
21501;SDS011;27639;48.674;9.242;2024-03-08T02:53:28;21.83;;;14.38;;
21501;SDS011;27639;48.674;9.242;2024-03-08T02:55:54;22.60;;;14.60;;
21501;SDS011;27639;48.674;9.242;2024-03-08T02:58:20;21.75;;;14.02;;
21501;SDS011;27639;48.674;9.242;2024-03-08T03:00:45;24.25;;;14.32;;
21501;SDS011;27639;48.674;9.242;2024-03-08T03:03:11;22.55;;;14.30;;
21501;SDS011;27639;48.674;9.242;2024-03-08T03:05:36;23.55;;;14.23;;
21501;SDS011;27639;48.674;9.242;2024-03-08T03:08:02;22.67;;;14.50;;
21501;SDS011;27639;48.674;9.242;2024-03-08T03:10:33;21.23;;;13.48;;
21501;SDS011;27639;48.674;9.242;2024-03-08T03:13:01;21.67;;;13.93;;
21501;SDS011;27639;48.674;9.242;2024-03-08T03:15:26;21.48;;;13.57;;
21501;SDS011;27639;48.674;9.242;2024-03-08T03:17:52;22.73;;;13.60;;
21501;SDS011;27639;48.674;9.242;2024-03-08T03:20:17;21.45;;;13.07;;
21501;SDS011;27639;48.674;9.242;2024-03-08T03:22:57;21.75;;;13.50;;
21501;SDS011;27639;48.674;9.242;2024-03-08T03:25:26;20.40;;;13.35;;
21501;SDS011;27639;48.674;9.242;2024-03-08T03:27:54;20.48;;;12.93;;
21501;SDS011;27639;48.674;9.242;2024-03-08T03:30:23;20.73;;;13.80;;
21501;SDS011;27639;48.674;9.242;2024-03-08T03:32:51;22.40;;;13.55;;
21501;SDS011;27639;48.674;9.242;2024-03-08T03:35:17;22.67;;;13.75;;
21501;SDS011;27639;48.674;9.242;2024-03-08T03:37:45;20.98;;;13.18;;
21501;SDS011;27639;48.674;9.242;2024-03-08T03:40:26;21.05;;;13.70;;
21501;SDS011;27639;48.674;9.242;2024-03-08T03:42:52;19.80;;;13.50;;
21501;SDS011;27639;48.674;9.242;2024-03-08T03:45:18;20.15;;;12.75;;
21501;SDS011;27639;48.674;9.242;2024-03-08T03:47:45;21.77;;;13.02;;
21501;SDS011;27639;48.674;9.242;2024-03-08T03:50:10;19.60;;;12.57;;
21501;SDS011;27639;48.674;9.242;2024-03-08T03:52:36;19.67;;;12.23;;
21501;SDS011;27639;48.674;9.242;2024-03-08T03:55:02;19.58;;;12.93;;
21501;SDS011;27639;48.674;9.242;2024-03-08T03:57:29;22.05;;;13.48;;
21501;SDS011;27639;48.674;9.242;2024-03-08T03:59:55;21.45;;;13.45;;
21501;SDS011;27639;48.674;9.242;2024-03-08T04:02:22;20.70;;;13.23;;
21501;SDS011;27639;48.674;9.242;2024-03-08T04:04:47;21.40;;;12.90;;
21501;SDS011;27639;48.674;9.242;2024-03-08T04:07:14;22.30;;;12.80;;
21501;SDS011;27639;48.674;9.242;2024-03-08T04:09:39;20.13;;;13.10;;
21501;SDS011;27639;48.674;9.242;2024-03-08T04:12:05;21.27;;;13.38;;
21501;SDS011;27639;48.674;9.242;2024-03-08T04:14:32;19.98;;;12.63;;
21501;SDS011;27639;48.674;9.242;2024-03-08T04:16:58;21.40;;;13.30;;
21501;SDS011;27639;48.674;9.242;2024-03-08T04:19:23;21.17;;;13.43;;
21501;SDS011;27639;48.674;9.242;2024-03-08T04:21:51;20.10;;;12.48;;
21501;SDS011;27639;48.674;9.242;2024-03-08T04:24:16;19.83;;;13.00;;
21501;SDS011;27639;48.674;9.242;2024-03-08T04:26:42;21.67;;;12.77;;
21501;SDS011;27639;48.674;9.242;2024-03-08T04:29:08;19.42;;;13.13;;
21501;SDS011;27639;48.674;9.242;2024-03-08T04:31:34;21.15;;;13.48;;
21501;SDS011;27639;48.674;9.242;2024-03-08T04:33:59;19.27;;;13.18;;
21501;SDS011;27639;48.674;9.242;2024-03-08T04:36:25;23.65;;;13.88;;
21501;SDS011;27639;48.674;9.242;2024-03-08T04:38:50;20.92;;;12.45;;
21501;SDS011;27639;48.674;9.242;2024-03-08T04:41:16;19.83;;;12.43;;
21501;SDS011;27639;48.674;9.242;2024-03-08T04:43:43;22.13;;;12.70;;
21501;SDS011;27639;48.674;9.242;2024-03-08T04:46:08;20.60;;;13.48;;
21501;SDS011;27639;48.674;9.242;2024-03-08T04:48:34;19.50;;;12.65;;
21501;SDS011;27639;48.674;9.242;2024-03-08T04:51:02;19.52;;;12.57;;
21501;SDS011;27639;48.674;9.242;2024-03-08T04:53:29;18.65;;;12.93;;
21501;SDS011;27639;48.674;9.242;2024-03-08T04:55:54;23.10;;;13.18;;
21501;SDS011;27639;48.674;9.242;2024-03-08T04:58:22;18.55;;;12.90;;
21501;SDS011;27639;48.674;9.242;2024-03-08T05:00:48;22.42;;;12.38;;
21501;SDS011;27639;48.674;9.242;2024-03-08T05:03:14;20.17;;;13.20;;
21501;SDS011;27639;48.674;9.242;2024-03-08T05:05:39;21.45;;;13.13;;
21501;SDS011;27639;48.674;9.242;2024-03-08T05:08:05;22.33;;;13.48;;
21501;SDS011;27639;48.674;9.242;2024-03-08T05:10:31;19.83;;;12.85;;
21501;SDS011;27639;48.674;9.242;2024-03-08T05:12:57;20.38;;;13.13;;
21501;SDS011;27639;48.674;9.242;2024-03-08T05:15:23;21.48;;;13.70;;
21501;SDS011;27639;48.674;9.242;2024-03-08T05:17:48;22.38;;;13.82;;
21501;SDS011;27639;48.674;9.242;2024-03-08T05:20:14;22.25;;;13.80;;
21501;SDS011;27639;48.674;9.242;2024-03-08T05:22:42;22.17;;;13.88;;
21501;SDS011;27639;48.674;9.242;2024-03-08T05:25:08;22.58;;;14.45;;
21501;SDS011;27639;48.674;9.242;2024-03-08T05:27:34;21.88;;;13.63;;
21501;SDS011;27639;48.674;9.242;2024-03-08T05:30:01;19.88;;;13.13;;
21501;SDS011;27639;48.674;9.242;2024-03-08T05:32:30;20.60;;;13.60;;
21501;SDS011;27639;48.674;9.242;2024-03-08T05:34:56;23.60;;;14.82;;
21501;SDS011;27639;48.674;9.242;2024-03-08T05:37:22;21.42;;;13.20;;
21501;SDS011;27639;48.674;9.242;2024-03-08T05:39:47;20.48;;;13.40;;
21501;SDS011;27639;48.674;9.242;2024-03-08T05:42:13;23.23;;;14.82;;
21501;SDS011;27639;48.674;9.242;2024-03-08T05:44:38;23.10;;;14.48;;
21501;SDS011;27639;48.674;9.242;2024-03-08T05:47:05;22.15;;;14.05;;
21501;SDS011;27639;48.674;9.242;2024-03-08T05:49:32;23.30;;;13.55;;
21501;SDS011;27639;48.674;9.242;2024-03-08T05:51:58;20.35;;;13.57;;
21501;SDS011;27639;48.674;9.242;2024-03-08T05:54:25;21.75;;;14.07;;
21501;SDS011;27639;48.674;9.242;2024-03-08T05:56:52;20.27;;;13.07;;
21501;SDS011;27639;48.674;9.242;2024-03-08T05:59:17;20.45;;;13.38;;
21501;SDS011;27639;48.674;9.242;2024-03-08T06:01:43;23.95;;;14.52;;
21501;SDS011;27639;48.674;9.242;2024-03-08T06:04:11;22.27;;;13.82;;
21501;SDS011;27639;48.674;9.242;2024-03-08T06:06:36;21.13;;;14.43;;
21501;SDS011;27639;48.674;9.242;2024-03-08T06:09:02;22.80;;;13.93;;
21501;SDS011;27639;48.674;9.242;2024-03-08T06:11:34;20.85;;;13.80;;
21501;SDS011;27639;48.674;9.242;2024-03-08T06:14:00;22.35;;;15.23;;
21501;SDS011;27639;48.674;9.242;2024-03-08T06:16:26;21.05;;;13.98;;
21501;SDS011;27639;48.674;9.242;2024-03-08T06:18:55;23.00;;;15.13;;
21501;SDS011;27639;48.674;9.242;2024-03-08T06:21:22;22.13;;;14.50;;
21501;SDS011;27639;48.674;9.242;2024-03-08T06:23:48;24.17;;;15.10;;
21501;SDS011;27639;48.674;9.242;2024-03-08T06:26:13;24.67;;;16.50;;
21501;SDS011;27639;48.674;9.242;2024-03-08T06:28:39;27.92;;;16.00;;
21501;SDS011;27639;48.674;9.242;2024-03-08T06:31:04;25.77;;;15.57;;
21501;SDS011;27639;48.674;9.242;2024-03-08T06:33:30;25.88;;;15.73;;
21501;SDS011;27639;48.674;9.242;2024-03-08T06:35:57;26.73;;;16.48;;
21501;SDS011;27639;48.674;9.242;2024-03-08T06:38:23;25.75;;;16.58;;
21501;SDS011;27639;48.674;9.242;2024-03-08T06:40:49;26.90;;;16.42;;
21501;SDS011;27639;48.674;9.242;2024-03-08T06:43:16;27.13;;;17.40;;
21501;SDS011;27639;48.674;9.242;2024-03-08T06:45:42;27.35;;;16.10;;
21501;SDS011;27639;48.674;9.242;2024-03-08T06:48:13;26.95;;;16.20;;
21501;SDS011;27639;48.674;9.242;2024-03-08T06:50:45;24.42;;;15.23;;
21501;SDS011;27639;48.674;9.242;2024-03-08T06:53:12;26.30;;;15.98;;
21501;SDS011;27639;48.674;9.242;2024-03-08T06:55:38;23.80;;;15.35;;
21501;SDS011;27639;48.674;9.242;2024-03-08T06:58:04;23.85;;;15.38;;
21501;SDS011;27639;48.674;9.242;2024-03-08T07:00:30;23.77;;;15.35;;
21501;SDS011;27639;48.674;9.242;2024-03-08T07:02:56;23.83;;;15.35;;
21501;SDS011;27639;48.674;9.242;2024-03-08T07:05:25;22.60;;;15.02;;
21501;SDS011;27639;48.674;9.242;2024-03-08T07:07:51;26.23;;;15.90;;
21501;SDS011;27639;48.674;9.242;2024-03-08T07:10:17;23.67;;;15.82;;
21501;SDS011;27639;48.674;9.242;2024-03-08T07:12:44;23.77;;;15.63;;
21501;SDS011;27639;48.674;9.242;2024-03-08T07:15:10;25.73;;;16.52;;
21501;SDS011;27639;48.674;9.242;2024-03-08T07:17:39;24.00;;;15.93;;
21501;SDS011;27639;48.674;9.242;2024-03-08T07:20:05;24.30;;;15.68;;
21501;SDS011;27639;48.674;9.242;2024-03-08T07:22:36;22.80;;;15.00;;
21501;SDS011;27639;48.674;9.242;2024-03-08T07:25:03;23.42;;;16.02;;
21501;SDS011;27639;48.674;9.242;2024-03-08T07:27:46;25.73;;;15.32;;
21501;SDS011;27639;48.674;9.242;2024-03-08T07:30:18;23.17;;;16.08;;
21501;SDS011;27639;48.674;9.242;2024-03-08T07:33:04;22.75;;;16.00;;
21501;SDS011;27639;48.674;9.242;2024-03-08T07:35:31;28.17;;;18.65;;
21501;SDS011;27639;48.674;9.242;2024-03-08T07:37:57;24.77;;;17.08;;
21501;SDS011;27639;48.674;9.242;2024-03-08T07:40:24;25.33;;;16.73;;
21501;SDS011;27639;48.674;9.242;2024-03-08T07:42:50;24.55;;;15.73;;
21501;SDS011;27639;48.674;9.242;2024-03-08T07:45:16;23.77;;;16.40;;
21501;SDS011;27639;48.674;9.242;2024-03-08T07:47:42;25.80;;;16.42;;
21501;SDS011;27639;48.674;9.242;2024-03-08T07:50:08;24.05;;;15.82;;
21501;SDS011;27639;48.674;9.242;2024-03-08T07:52:35;23.38;;;15.95;;
21501;SDS011;27639;48.674;9.242;2024-03-08T07:55:03;25.83;;;16.85;;
21501;SDS011;27639;48.674;9.242;2024-03-08T07:57:30;24.17;;;16.15;;
21501;SDS011;27639;48.674;9.242;2024-03-08T07:59:57;23.05;;;16.25;;
21501;SDS011;27639;48.674;9.242;2024-03-08T08:02:22;26.73;;;14.98;;
21501;SDS011;27639;48.674;9.242;2024-03-08T08:04:48;23.30;;;15.27;;
21501;SDS011;27639;48.674;9.242;2024-03-08T08:07:14;24.75;;;15.68;;
21501;SDS011;27639;48.674;9.242;2024-03-08T08:09:39;23.38;;;15.25;;
21501;SDS011;27639;48.674;9.242;2024-03-08T08:12:07;23.70;;;15.52;;
21501;SDS011;27639;48.674;9.242;2024-03-08T08:14:35;23.98;;;15.07;;
21501;SDS011;27639;48.674;9.242;2024-03-08T08:17:01;23.67;;;16.42;;
21501;SDS011;27639;48.674;9.242;2024-03-08T08:19:29;23.73;;;15.45;;
21501;SDS011;27639;48.674;9.242;2024-03-08T08:21:55;24.55;;;15.23;;
21501;SDS011;27639;48.674;9.242;2024-03-08T08:24:20;23.38;;;14.43;;
21501;SDS011;27639;48.674;9.242;2024-03-08T08:26:47;24.02;;;15.38;;
21501;SDS011;27639;48.674;9.242;2024-03-08T08:29:12;25.17;;;15.10;;
21501;SDS011;27639;48.674;9.242;2024-03-08T08:31:38;23.35;;;15.13;;
21501;SDS011;27639;48.674;9.242;2024-03-08T08:34:04;24.52;;;15.02;;
21501;SDS011;27639;48.674;9.242;2024-03-08T08:36:31;22.00;;;14.48;;
21501;SDS011;27639;48.674;9.242;2024-03-08T08:38:56;23.77;;;15.15;;
21501;SDS011;27639;48.674;9.242;2024-03-08T08:41:23;23.70;;;15.15;;
21501;SDS011;27639;48.674;9.242;2024-03-08T08:43:49;24.33;;;15.45;;
21501;SDS011;27639;48.674;9.242;2024-03-08T08:46:18;22.08;;;14.80;;
21501;SDS011;27639;48.674;9.242;2024-03-08T08:48:44;24.05;;;14.50;;
21501;SDS011;27639;48.674;9.242;2024-03-08T08:51:10;23.63;;;14.40;;
21501;SDS011;27639;48.674;9.242;2024-03-08T08:53:37;22.13;;;14.80;;
21501;SDS011;27639;48.674;9.242;2024-03-08T08:56:05;24.20;;;15.18;;
21501;SDS011;27639;48.674;9.242;2024-03-08T08:58:33;22.48;;;14.13;;
21501;SDS011;27639;48.674;9.242;2024-03-08T09:00:58;21.23;;;14.90;;
21501;SDS011;27639;48.674;9.242;2024-03-08T09:03:24;25.10;;;17.48;;
21501;SDS011;27639;48.674;9.242;2024-03-08T09:05:52;22.67;;;15.18;;
21501;SDS011;27639;48.674;9.242;2024-03-08T09:08:17;21.35;;;14.23;;
21501;SDS011;27639;48.674;9.242;2024-03-08T09:10:43;22.65;;;14.40;;
21501;SDS011;27639;48.674;9.242;2024-03-08T09:13:09;20.45;;;13.75;;
21501;SDS011;27639;48.674;9.242;2024-03-08T09:15:36;20.67;;;13.73;;
21501;SDS011;27639;48.674;9.242;2024-03-08T09:18:05;21.05;;;14.50;;
21501;SDS011;27639;48.674;9.242;2024-03-08T09:20:31;21.20;;;14.13;;
21501;SDS011;27639;48.674;9.242;2024-03-08T09:22:57;20.60;;;13.77;;
21501;SDS011;27639;48.674;9.242;2024-03-08T09:25:23;20.63;;;13.60;;
21501;SDS011;27639;48.674;9.242;2024-03-08T09:27:48;21.13;;;14.07;;
21501;SDS011;27639;48.674;9.242;2024-03-08T09:30:14;20.25;;;13.43;;
21501;SDS011;27639;48.674;9.242;2024-03-08T09:32:40;20.58;;;13.75;;
21501;SDS011;27639;48.674;9.242;2024-03-08T09:35:08;19.38;;;13.85;;
21501;SDS011;27639;48.674;9.242;2024-03-08T09:37:33;20.15;;;13.65;;
21501;SDS011;27639;48.674;9.242;2024-03-08T09:39:59;22.70;;;14.38;;
21501;SDS011;27639;48.674;9.242;2024-03-08T09:42:25;21.15;;;13.63;;
21501;SDS011;27639;48.674;9.242;2024-03-08T09:44:51;21.67;;;13.75;;
21501;SDS011;27639;48.674;9.242;2024-03-08T09:47:17;20.88;;;13.82;;
21501;SDS011;27639;48.674;9.242;2024-03-08T09:49:43;19.90;;;13.25;;
21501;SDS011;27639;48.674;9.242;2024-03-08T09:52:09;20.92;;;13.38;;
21501;SDS011;27639;48.674;9.242;2024-03-08T09:54:38;18.40;;;12.85;;
21501;SDS011;27639;48.674;9.242;2024-03-08T09:57:04;21.85;;;13.80;;
21501;SDS011;27639;48.674;9.242;2024-03-08T09:59:33;20.25;;;14.55;;
21501;SDS011;27639;48.674;9.242;2024-03-08T10:02:12;22.00;;;13.95;;
21501;SDS011;27639;48.674;9.242;2024-03-08T10:07:11;19.88;;;13.35;;
21501;SDS011;27639;48.674;9.242;2024-03-08T10:09:37;20.25;;;13.73;;
21501;SDS011;27639;48.674;9.242;2024-03-08T10:12:04;21.80;;;13.88;;
21501;SDS011;27639;48.674;9.242;2024-03-08T10:14:30;21.33;;;14.50;;
21501;SDS011;27639;48.674;9.242;2024-03-08T10:16:57;20.83;;;13.65;;
21501;SDS011;27639;48.674;9.242;2024-03-08T10:19:25;21.95;;;14.82;;
21501;SDS011;27639;48.674;9.242;2024-03-08T10:21:51;20.08;;;13.60;;
21501;SDS011;27639;48.674;9.242;2024-03-08T10:24:18;17.95;;;12.40;;
21501;SDS011;27639;48.674;9.242;2024-03-08T10:26:44;20.15;;;13.18;;
21501;SDS011;27639;48.674;9.242;2024-03-08T10:29:10;19.77;;;13.05;;
21501;SDS011;27639;48.674;9.242;2024-03-08T10:31:42;20.27;;;13.00;;
21501;SDS011;27639;48.674;9.242;2024-03-08T10:34:09;19.95;;;13.27;;
21501;SDS011;27639;48.674;9.242;2024-03-08T10:36:35;19.05;;;12.57;;
21501;SDS011;27639;48.674;9.242;2024-03-08T10:39:03;18.77;;;12.07;;
21501;SDS011;27639;48.674;9.242;2024-03-08T10:41:33;19.98;;;12.98;;
21501;SDS011;27639;48.674;9.242;2024-03-08T10:49:38;18.52;;;12.10;;
21501;SDS011;27639;48.674;9.242;2024-03-08T10:52:10;20.33;;;12.63;;
21501;SDS011;27639;48.674;9.242;2024-03-08T10:54:38;17.95;;;12.18;;
21501;SDS011;27639;48.674;9.242;2024-03-08T10:57:05;18.75;;;13.00;;
21501;SDS011;27639;48.674;9.242;2024-03-08T10:59:33;17.67;;;12.48;;
21501;SDS011;27639;48.674;9.242;2024-03-08T11:02:00;20.55;;;12.70;;
21501;SDS011;27639;48.674;9.242;2024-03-08T11:04:26;17.95;;;12.50;;
21501;SDS011;27639;48.674;9.242;2024-03-08T11:06:54;18.80;;;12.90;;
21501;SDS011;27639;48.674;9.242;2024-03-08T11:09:31;18.45;;;11.98;;
21501;SDS011;27639;48.674;9.242;2024-03-08T11:14:54;16.20;;;11.02;;
21501;SDS011;27639;48.674;9.242;2024-03-08T11:19:57;17.00;;;11.90;;
21501;SDS011;27639;48.674;9.242;2024-03-08T11:22:32;18.77;;;12.02;;
21501;SDS011;27639;48.674;9.242;2024-03-08T11:25:01;18.13;;;11.73;;
21501;SDS011;27639;48.674;9.242;2024-03-08T11:27:28;15.40;;;11.02;;
21501;SDS011;27639;48.674;9.242;2024-03-08T11:30:01;17.05;;;12.30;;
21501;SDS011;27639;48.674;9.242;2024-03-08T11:32:36;18.48;;;11.50;;
21501;SDS011;27639;48.674;9.242;2024-03-08T11:35:05;16.70;;;11.82;;
21501;SDS011;27639;48.674;9.242;2024-03-08T11:37:34;19.50;;;12.52;;
21501;SDS011;27639;48.674;9.242;2024-03-08T11:40:01;17.50;;;11.90;;
21501;SDS011;27639;48.674;9.242;2024-03-08T11:42:29;16.88;;;12.10;;
21501;SDS011;27639;48.674;9.242;2024-03-08T11:44:55;16.02;;;11.23;;
21501;SDS011;27639;48.674;9.242;2024-03-08T11:47:21;18.95;;;12.02;;
21501;SDS011;27639;48.674;9.242;2024-03-08T11:49:47;18.58;;;12.50;;
21501;SDS011;27639;48.674;9.242;2024-03-08T11:52:14;21.25;;;12.63;;
21501;SDS011;27639;48.674;9.242;2024-03-08T11:54:40;17.65;;;12.05;;
21501;SDS011;27639;48.674;9.242;2024-03-08T11:57:08;17.65;;;11.88;;
21501;SDS011;27639;48.674;9.242;2024-03-08T11:59:35;18.25;;;12.93;;
21501;SDS011;27639;48.674;9.242;2024-03-08T12:02:02;21.05;;;13.10;;
21501;SDS011;27639;48.674;9.242;2024-03-08T12:04:29;20.08;;;13.98;;
21501;SDS011;27639;48.674;9.242;2024-03-08T12:06:55;20.30;;;13.55;;
21501;SDS011;27639;48.674;9.242;2024-03-08T12:09:24;21.02;;;13.75;;
21501;SDS011;27639;48.674;9.242;2024-03-08T12:11:50;21.23;;;13.25;;
21501;SDS011;27639;48.674;9.242;2024-03-08T12:14:16;22.30;;;14.63;;
21501;SDS011;27639;48.674;9.242;2024-03-08T12:16:43;20.83;;;13.85;;
21501;SDS011;27639;48.674;9.242;2024-03-08T12:19:09;20.35;;;13.80;;
21501;SDS011;27639;48.674;9.242;2024-03-08T12:21:35;19.98;;;13.35;;
21501;SDS011;27639;48.674;9.242;2024-03-08T12:24:08;20.05;;;13.48;;
21501;SDS011;27639;48.674;9.242;2024-03-08T12:26:38;19.90;;;13.50;;
21501;SDS011;27639;48.674;9.242;2024-03-08T12:31:46;20.25;;;13.32;;
21501;SDS011;27639;48.674;9.242;2024-03-08T12:34:12;22.85;;;13.18;;
21501;SDS011;27639;48.674;9.242;2024-03-08T12:36:48;18.75;;;13.15;;
21501;SDS011;27639;48.674;9.242;2024-03-08T12:39:19;19.92;;;14.18;;
21501;SDS011;27639;48.674;9.242;2024-03-08T12:41:52;21.90;;;14.57;;
21501;SDS011;27639;48.674;9.242;2024-03-08T12:44:22;20.50;;;14.52;;
21501;SDS011;27639;48.674;9.242;2024-03-08T12:46:48;19.45;;;13.75;;
21501;SDS011;27639;48.674;9.242;2024-03-08T12:49:14;20.48;;;12.88;;
21501;SDS011;27639;48.674;9.242;2024-03-08T12:51:45;20.98;;;14.05;;
21501;SDS011;27639;48.674;9.242;2024-03-08T12:54:11;19.35;;;12.88;;
21501;SDS011;27639;48.674;9.242;2024-03-08T12:56:37;20.70;;;13.95;;
21501;SDS011;27639;48.674;9.242;2024-03-08T12:59:04;20.45;;;13.38;;
21501;SDS011;27639;48.674;9.242;2024-03-08T13:01:35;20.55;;;12.50;;
21501;SDS011;27639;48.674;9.242;2024-03-08T13:04:04;21.52;;;14.05;;
21501;SDS011;27639;48.674;9.242;2024-03-08T13:06:31;20.27;;;13.90;;
21501;SDS011;27639;48.674;9.242;2024-03-08T13:08:57;20.27;;;14.40;;
21501;SDS011;27639;48.674;9.242;2024-03-08T13:11:24;20.38;;;13.60;;
21501;SDS011;27639;48.674;9.242;2024-03-08T13:13:50;20.10;;;13.95;;
21501;SDS011;27639;48.674;9.242;2024-03-08T13:16:17;20.25;;;14.02;;
21501;SDS011;27639;48.674;9.242;2024-03-08T13:18:44;20.88;;;13.55;;
21501;SDS011;27639;48.674;9.242;2024-03-08T13:21:10;22.33;;;14.20;;
21501;SDS011;27639;48.674;9.242;2024-03-08T13:23:39;18.13;;;12.25;;
21501;SDS011;27639;48.674;9.242;2024-03-08T13:26:09;23.25;;;13.57;;
21501;SDS011;27639;48.674;9.242;2024-03-08T13:28:50;18.67;;;12.95;;
21501;SDS011;27639;48.674;9.242;2024-03-08T13:31:21;21.20;;;14.02;;
21501;SDS011;27639;48.674;9.242;2024-03-08T13:33:48;20.73;;;13.82;;
21501;SDS011;27639;48.674;9.242;2024-03-08T13:36:13;20.80;;;13.43;;
21501;SDS011;27639;48.674;9.242;2024-03-08T13:38:41;20.23;;;12.90;;
21501;SDS011;27639;48.674;9.242;2024-03-08T13:41:13;21.63;;;14.55;;
21501;SDS011;27639;48.674;9.242;2024-03-08T13:43:41;22.00;;;13.85;;
21501;SDS011;27639;48.674;9.242;2024-03-08T13:46:11;17.90;;;12.15;;
21501;SDS011;27639;48.674;9.242;2024-03-08T13:48:37;21.75;;;13.05;;
21501;SDS011;27639;48.674;9.242;2024-03-08T13:51:05;21.02;;;13.82;;
21501;SDS011;27639;48.674;9.242;2024-03-08T13:53:33;18.63;;;12.98;;
21501;SDS011;27639;48.674;9.242;2024-03-08T13:56:00;20.70;;;13.40;;
21501;SDS011;27639;48.674;9.242;2024-03-08T13:58:27;19.23;;;13.63;;
21501;SDS011;27639;48.674;9.242;2024-03-08T14:00:52;19.25;;;13.25;;
21501;SDS011;27639;48.674;9.242;2024-03-08T14:03:18;21.15;;;13.50;;
21501;SDS011;27639;48.674;9.242;2024-03-08T14:05:45;20.63;;;14.18;;
21501;SDS011;27639;48.674;9.242;2024-03-08T14:08:11;20.27;;;12.82;;
21501;SDS011;27639;48.674;9.242;2024-03-08T14:10:38;18.25;;;12.30;;
21501;SDS011;27639;48.674;9.242;2024-03-08T14:13:04;20.88;;;13.32;;
21501;SDS011;27639;48.674;9.242;2024-03-08T14:15:32;18.52;;;12.75;;
21501;SDS011;27639;48.674;9.242;2024-03-08T14:17:58;19.70;;;12.85;;
21501;SDS011;27639;48.674;9.242;2024-03-08T14:20:23;19.80;;;12.75;;
21501;SDS011;27639;48.674;9.242;2024-03-08T14:22:52;18.35;;;11.80;;
21501;SDS011;27639;48.674;9.242;2024-03-08T14:25:21;19.77;;;12.30;;
21501;SDS011;27639;48.674;9.242;2024-03-08T14:27:51;20.17;;;13.57;;
21501;SDS011;27639;48.674;9.242;2024-03-08T14:30:23;20.45;;;13.50;;
21501;SDS011;27639;48.674;9.242;2024-03-08T14:32:58;20.27;;;13.18;;
21501;SDS011;27639;48.674;9.242;2024-03-08T14:35:25;18.90;;;12.60;;